METAR AND TAF INFORMATION
METAR FOR EKVG
ADDS - METARS form results

(0433 UTC 18 January 2022)
Data provider http://aviationweather.gov/metar/data/
 
METAR text: EKVG 180420Z AUTO 23015KT 190V260 8000 OVC005/// 08/07 Q1015 RMK OVC008/// WIND SKEID VRB11G36KT
Conditions at: EKVG (SORVAAG/VAGAR , DK) observed 0420 UTC 18 January 2022
Temperature: 8.0°C (46°F)
Dewpoint: 7.0°C (45°F) [RH = 93%]
Pressure (altimeter): 29.97 inches Hg (1015.0 mb)
Winds: from the SW (230 degrees) at 17 MPH (15 knots; 7.7 m/s)
Visibility: 5 miles ( 8 km)
Ceiling: 500 feet AGL
Clouds: overcast cloud deck at 500 feet AGL
Weather: no significant weather observed at this time

METAR text: EKVG 180350Z AUTO VRB10G21KT 9000 OVC005/// 09/08 Q1016 RMK OVC008/// WIND SKEID VRB10G31KT
Conditions at: EKVG (SORVAAG/VAGAR , DK) observed 0350 UTC 18 January 2022
Temperature: 9.0°C (48°F)
Dewpoint: 8.0°C (46°F) [RH = 93%]
Pressure (altimeter): 30.00 inches Hg (1016.0 mb)
Winds: variable direction winds at 12 MPH (10 knots; 5.1 m/s)
gusting to 24 MPH (21 knots; 10.8 m/s)
Visibility: 6 miles ( 9 km)
Ceiling: 500 feet AGL
Clouds: overcast cloud deck at 500 feet AGL
Weather: no significant weather observed at this time

 AIRPORT MAP

 RUNWAY INFORMATION
Runway 13 Runway length 5902 ft Runway width 98 ft
Runway elevation 268 ft Runway displaced threshold 0 ft Runway heading 118
Runway 31 Runway length 5902 ft Runway width 98 ft
Runway elevation 252 ft Runway displaced threshold 0 ft Runway heading 298

 AIRPORT FREQUENCIES
Type AFIS Name AFIS Frequency 124.85 MHZ

 AIRPORT NEAR NAVIGATION AIDS
Type NDB Name Myggenes Frequency 337 KHZ
Type NDB Name Nolso Frequency 404 KHZ
Type NDB Name Vagar Frequency 348 KHZ

-